Time;durP1;ratioP1;P1;durP2;ratioP2;P2;SDS_P1;SDS_P2;PMS_P1;PMS_P2;Temp;Humidity;BMP_temperature;BMP_pressure;BME280_temperature;BME280_humidity;BME280_pressure;Samples;Min_cycle;Max_cycle;Signal;HPM_P1;HPM_P2
2022/01/17 04:31:40;;;;;;;21.00;15.27;;;;;;;8.14;56.70;100263.50;7587785;23;20326;-80
2022/01/17 04:35:02;;;;;;;20.73;14.37;;;;;;;7.74;57.41;100182.56;6818326;29;20296;-80
2022/01/17 04:38:24;;;;;;;20.57;14.93;;;;;;;8.05;56.70;100225.00;6818388;29;20247;-84
2022/01/17 04:41:45;;;;;;;24.77;16.00;;;;;;;7.40;57.61;100208.38;6817961;29;20231;-81
2022/01/17 04:45:08;;;;;;;22.57;14.93;;;;;;;7.76;57.94;100282.59;6817432;29;20216;-84
2022/01/17 04:48:32;;;;;;;24.63;17.27;;;;;;;7.78;57.71;100272.56;6815206;29;20840;-84
2022/01/17 04:51:54;;;;;;;27.00;16.87;;;;;;;8.04;58.24;100279.72;6817605;29;20317;-84
2022/01/17 04:55:17;;;;;;;25.70;17.97;;;;;;;7.89;58.05;100283.91;6816915;29;20229;-84
2022/01/17 04:58:41;;;;;;;22.70;17.53;;;;;;;8.00;57.87;100299.81;6816187;29;20217;-83
2022/01/17 05:02:03;;;;;;;25.93;17.53;;;;;;;8.19;57.66;100283.53;6817597;29;20241;-84
2022/01/17 05:05:26;;;;;;;26.80;17.67;;;;;;;8.11;57.32;100299.59;6816979;29;20252;-84
2022/01/17 05:08:47;;;;;;;26.40;17.70;;;;;;;8.26;57.36;100300.75;6817297;29;20210;-84
2022/01/17 05:12:10;;;;;;;27.77;17.40;;;;;;;8.05;57.12;100283.22;6817058;29;20238;-84
2022/01/17 05:15:35;;;;;;;26.93;18.20;;;;;;;8.25;56.90;100271.38;6816240;29;20231;-84
2022/01/17 05:22:45;;;;;;;27.83;18.47;;;;;;;8.29;56.80;100270.03;6782141;29;20852;-84
2022/01/17 05:26:07;;;;;;;24.63;17.57;;;;;;;8.19;57.79;100286.22;6815958;29;20215;-84
2022/01/17 05:29:28;;;;;;;26.57;17.70;;;;;;;8.27;57.52;100283.66;6816620;29;20201;-84
2022/01/17 05:32:51;;;;;;;31.90;20.87;;;;;;;7.76;58.04;100282.59;6816872;29;20577;-84
2022/01/17 05:36:13;;;;;;;30.20;19.67;;;;;;;8.00;58.15;100267.56;6815660;29;20325;-84
2022/01/17 05:39:36;;;;;;;23.10;16.40;;;;;;;8.26;57.23;100270.38;6816610;29;20619;-84
2022/01/17 05:42:58;;;;;;;24.87;17.47;;;;;;;7.75;58.09;100262.09;6803526;29;20224;-84
2022/01/17 05:46:19;;;;;;;27.93;18.43;;;;;;;7.92;58.19;100264.81;6779844;29;20679;-84
2022/01/17 05:49:41;;;;;;;25.50;16.83;;;;;;;8.10;57.89;100275.56;6772779;29;20213;-84
2022/01/17 05:53:03;;;;;;;26.67;18.43;;;;;;;7.77;58.56;100268.19;6770219;29;20602;-83
2022/01/17 05:56:26;;;;;;;30.20;19.63;;;;;;;7.79;58.99;100261.66;6788706;29;20238;-81
2022/01/17 05:59:49;;;;;;;26.57;19.87;;;;;;;7.97;58.63;100248.25;6765058;29;20208;-84
2022/01/17 06:03:11;;;;;;;29.03;19.97;;;;;;;8.08;58.17;100256.91;6763059;29;20287;-83
2022/01/17 06:06:33;;;;;;;32.23;21.57;;;;;;;8.06;58.34;100283.06;6761972;29;20212;-86
2022/01/17 06:09:54;;;;;;;31.70;20.63;;;;;;;7.97;58.63;100281.31;6763233;29;20207;-83
2022/01/17 06:13:17;;;;;;;29.47;19.97;;;;;;;8.29;57.73;100287.03;6763260;29;20246;-83
2022/01/17 06:16:39;;;;;;;27.23;20.17;;;;;;;8.38;57.27;100291.44;6762406;29;20693;-84
2022/01/17 06:20:00;;;;;;;28.93;19.90;;;;;;;7.90;58.24;100269.47;6762352;29;20209;-84
2022/01/17 06:23:24;;;;;;;28.87;19.60;;;;;;;7.83;58.70;100281.84;6763113;29;20234;-83
2022/01/17 06:26:46;;;;;;;29.30;20.17;;;;;;;8.22;58.29;100302.06;6761699;29;20242;-84
2022/01/17 06:30:11;;;;;;;32.47;21.97;;;;;;;8.01;58.78;100292.59;6762676;29;20253;-81
2022/01/17 06:33:33;;;;;;;37.77;24.77;;;;;;;8.07;58.26;100278.56;6761622;29;20240;-83
2022/01/17 06:36:54;;;;;;;31.33;21.40;;;;;;;7.44;58.96;100282.22;6762182;29;20253;-82
2022/01/17 06:40:16;;;;;;;35.37;21.97;;;;;;;7.61;59.32;100322.50;6772261;29;20205;-84
2022/01/17 06:43:38;;;;;;;32.03;21.30;;;;;;;7.93;58.77;100304.09;6768620;29;20205;-84
2022/01/17 06:47:01;;;;;;;33.10;21.63;;;;;;;7.96;59.20;100327.13;6762009;29;20216;-83
2022/01/17 06:50:23;;;;;;;28.03;18.87;;;;;;;7.99;58.74;100318.75;6761419;29;20215;-84
2022/01/17 06:53:45;;;;;;;29.33;19.67;;;;;;;7.96;58.24;100293.03;6760632;29;20291;-84
2022/01/17 06:57:07;;;;;;;31.33;21.33;;;;;;;8.10;58.64;100332.81;6761600;29;21008;-84
2022/01/17 07:00:28;;;;;;;32.57;20.63;;;;;;;7.62;58.81;100336.78;6761687;29;20384;-84
2022/01/17 07:03:52;;;;;;;27.37;18.17;;;;;;;7.31;59.67;100282.56;6763207;29;20201;-82
2022/01/17 07:07:14;;;;;;;27.30;19.07;;;;;;;7.23;60.33;100301.25;6780261;29;20206;-84
2022/01/17 07:10:35;;;;;;;34.63;22.13;;;;;;;6.92;61.97;100358.81;6779683;29;20234;-81
2022/01/17 07:13:57;;;;;;;35.40;23.70;;;;;;;7.70;60.86;100374.47;6780755;29;20218;-82
2022/01/17 07:17:19;;;;;;;32.90;22.10;;;;;;;8.01;59.61;100362.44;6789042;29;20228;-83
2022/01/17 07:20:41;;;;;;;33.43;22.33;;;;;;;8.31;58.87;100389.81;6788914;29;20725;-82
2022/01/17 07:24:04;;;;;;;34.97;21.77;;;;;;;8.34;58.10;100370.72;6787581;29;20214;-83
2022/01/17 07:27:26;;;;;;;26.77;19.23;;;;;;;8.06;58.04;100339.47;6782262;29;20617;-84
2022/01/17 07:30:47;;;;;;;26.67;18.47;;;;;;;7.25;59.70;100389.63;6762019;29;20248;-84
2022/01/17 07:34:11;;;;;;;28.60;20.67;;;;;;;7.18;61.26;100399.25;6761997;29;20649;-84
2022/01/17 07:37:34;;;;;;;31.10;20.23;;;;;;;7.46;61.29;100382.19;6781780;29;20230;-83
2022/01/17 07:40:55;;;;;;;34.47;21.97;;;;;;;7.25;62.41;100378.91;6788056;29;20695;-83
2022/01/17 07:44:20;;;;;;;29.53;21.30;;;;;;;7.99;60.66;100369.78;6774140;29;20213;-83
2022/01/17 07:47:45;;;;;;;43.77;27.53;;;;;;;8.20;59.06;100387.34;6763219;29;20213;-83
2022/01/17 07:51:08;;;;;;;31.47;20.20;;;;;;;7.93;59.31;100368.56;6768036;29;20312;-83
2022/01/17 07:54:33;;;;;;;33.17;20.30;;;;;;;7.78;59.04;100353.94;6788684;29;20218;-83
2022/01/17 07:57:55;;;;;;;29.20;19.17;;;;;;;7.61;60.60;100380.75;6787891;29;20284;-84
2022/01/17 08:01:17;;;;;;;29.77;19.37;;;;;;;7.58;60.59;100387.25;6788765;29;20576;-84
2022/01/17 08:04:38;;;;;;;30.97;20.93;;;;;;;7.66;61.22;100363.19;6778859;29;20213;-83
2022/01/17 08:08:00;;;;;;;32.17;19.90;;;;;;;8.14;60.22;100387.09;6788011;29;20216;-83
2022/01/17 08:11:23;;;;;;;28.03;18.50;;;;;;;8.24;59.61;100366.41;6788463;29;20227;-83
2022/01/17 08:14:44;;;;;;;28.63;18.43;;;;;;;8.53;58.93;100381.31;6788221;29;20255;-83
2022/01/17 08:18:06;;;;;;;22.87;16.63;;;;;;;8.42;58.89;100375.34;6783668;29;20233;-84
2022/01/17 08:21:28;;;;;;;27.20;19.67;;;;;;;8.12;59.50;100392.59;6763925;29;20234;-84
2022/01/17 08:24:49;;;;;;;26.97;18.63;;;;;;;8.46;58.66;100369.50;6767203;29;20205;-83
2022/01/17 08:28:13;;;;;;;21.20;15.17;;;;;;;8.81;57.54;100400.88;6789327;29;20214;-84
2022/01/17 08:31:34;;;;;;;26.83;16.47;;;;;;;8.72;57.89;100396.44;6793160;29;20300;-83
2022/01/17 08:34:57;;;;;;;30.40;21.83;;;;;;;8.65;58.46;100388.13;6792632;29;20200;-84
2022/01/17 08:38:19;;;;;;;32.37;21.33;;;;;;;8.74;57.74;100389.06;6792765;29;20241;-82
2022/01/17 08:41:42;;;;;;;31.17;20.90;;;;;;;8.88;58.13;100364.28;6792522;29;20225;-84
2022/01/17 08:45:08;;;;;;;26.60;18.33;;;;;;;8.98;57.53;100365.91;6791838;29;20207;-84
2022/01/17 08:48:30;;;;;;;28.37;19.10;;;;;;;8.84;57.84;100374.50;6791284;29;20221;-83
2022/01/17 08:51:51;;;;;;;27.00;18.27;;;;;;;9.01;57.84;100379.03;6792545;29;20242;-82
2022/01/17 08:55:13;;;;;;;25.67;18.53;;;;;;;8.88;57.65;100359.75;6783218;29;20252;-83
2022/01/17 08:58:35;;;;;;;26.27;19.30;;;;;;;8.58;57.74;100287.59;6766881;29;20239;-84
2022/01/17 09:01:58;;;;;;;26.80;19.03;;;;;;;9.52;56.02;100387.91;6765767;29;20735;-85
2022/01/17 09:05:19;;;;;;;24.93;17.70;;;;;;;9.46;56.47;100411.97;6767567;29;20232;-82
2022/01/17 09:08:42;;;;;;;22.13;17.20;;;;;;;9.49;55.71;100412.50;6771143;29;20551;-83
2022/01/17 09:12:04;;;;;;;28.23;20.07;;;;;;;9.36;56.80;100414.78;6768139;29;20222;-84
2022/01/17 09:15:26;;;;;;;31.73;20.90;;;;;;;9.06;56.68;100403.59;6767985;29;20591;-82
2022/01/17 09:18:49;;;;;;;31.03;21.70;;;;;;;9.47;56.13;100392.13;6767262;29;20235;-83
2022/01/17 09:22:11;;;;;;;28.20;19.53;;;;;;;9.15;57.37;100406.19;6766743;29;20228;-83
2022/01/17 09:25:33;;;;;;;22.43;15.43;;;;;;;8.50;58.43;100384.31;6765564;29;20579;-84
2022/01/17 09:28:56;;;;;;;17.60;11.67;;;;;;;9.50;57.21;100413.34;6764475;29;20221;-84
2022/01/17 09:32:18;;;;;;;17.70;12.77;;;;;;;9.47;57.40;100427.13;6779463;29;20236;-85
2022/01/17 09:35:41;;;;;;;15.83;12.53;;;;;;;10.14;56.01;100427.13;6777641;29;20250;-81
2022/01/17 09:39:04;;;;;;;17.57;13.37;;;;;;;10.11;55.50;100446.34;6790096;29;20226;-86
2022/01/17 09:42:25;;;;;;;17.07;12.67;;;;;;;9.99;55.96;100393.72;6774984;29;20231;-86
2022/01/17 09:45:47;;;;;;;15.23;11.47;;;;;;;10.35;55.21;100422.16;6790785;29;20210;-84
2022/01/17 09:49:22;;;;;;;22.13;18.60;;;;;;;10.41;55.10;100434.97;6791808;29;20218;-85
2022/01/17 09:52:47;;;;;;;11.83;8.03;;;;;;;10.48;54.22;100460.28;6790673;29;20297;-85
2022/01/17 09:56:09;;;;;;;12.13;10.37;;;;;;;10.08;54.74;100450.19;6790601;29;20199;-86
2022/01/17 09:59:31;;;;;;;11.03;9.83;;;;;;;9.88;54.55;100420.94;6791479;29;20220;-85
2022/01/17 10:02:53;;;;;;;13.67;12.27;;;;;;;10.23;53.74;100464.75;6791063;29;20238;-85
2022/01/17 10:06:14;;;;;;;7.40;6.70;;;;;;;10.16;53.98;100438.63;6790671;29;20218;-85
2022/01/17 10:09:39;;;;;;;5.47;4.97;;;;;;;9.94;54.77;100464.25;6791513;29;20207;-84
2022/01/17 10:13:05;;;;;;;14.90;13.40;;;;;;;10.10;54.88;100450.03;6790234;29;20223;-83
2022/01/17 10:16:29;;;;;;;7.27;6.57;;;;;;;9.49;54.26;100328.16;6781760;29;20202;-86
2022/01/17 10:20:00;;;;;;;10.03;7.10;;;;;;;9.08;56.00;100432.06;6790790;29;20237;-83
2022/01/17 10:23:39;;;;;;;10.80;8.53;;;;;;;8.85;56.64;100434.53;6792166;29;20231;-84
2022/01/17 10:31:08;;;;;;;8.40;7.50;;;;;;;9.58;55.21;100441.13;6757296;29;20294;-85
2022/01/17 10:38:10;;;;;;;12.03;8.77;;;;;;;9.68;55.31;100452.66;6776856;29;20222;-83
2022/01/17 10:41:32;;;;;;;10.83;8.60;;;;;;;9.52;55.09;100451.72;6776685;29;20224;-83
2022/01/17 10:44:55;;;;;;;11.17;9.07;;;;;;;9.11;55.79;100453.25;6770551;29;20210;-81
2022/01/17 10:48:17;;;;;;;11.10;9.13;;;;;;;9.68;55.10;100468.00;6777797;29;20820;-81
2022/01/17 10:51:40;;;;;;;10.67;8.50;;;;;;;9.23;55.72;100465.50;6769953;29;20257;-83
2022/01/17 10:55:05;;;;;;;11.60;9.03;;;;;;;9.44;55.45;100476.72;6783032;29;20211;-81
2022/01/17 10:58:29;;;;;;;11.83;9.00;;;;;;;10.01;54.63;100505.72;6774613;29;20219;-80
2022/01/17 11:01:53;;;;;;;12.13;8.90;;;;;;;10.01;54.30;100494.09;6761809;29;20627;-81
2022/01/17 11:05:17;;;;;;;13.20;9.47;;;;;;;10.29;53.48;100474.03;6760810;29;20711;-82
2022/01/17 11:08:41;;;;;;;11.53;8.70;;;;;;;9.73;55.29;100479.97;6761989;29;20216;-80
2022/01/17 11:12:09;;;;;;;9.57;8.00;;;;;;;9.65;55.44;100484.44;6761977;29;20235;-81
2022/01/17 11:15:33;;;;;;;8.33;7.20;;;;;;;9.76;55.05;100476.09;6761523;29;20601;-81
2022/01/17 11:19:10;;;;;;;8.93;7.13;;;;;;;9.64;55.50;100494.38;6762251;29;20599;-82
2022/01/17 11:22:32;;;;;;;11.40;7.27;;;;;;;9.73;54.85;100457.56;6761960;29;20259;-80
2022/01/17 11:25:55;;;;;;;9.90;7.47;;;;;;;9.85;54.60;100480.50;6761176;29;20213;-81
2022/01/17 11:29:20;;;;;;;9.47;7.27;;;;;;;9.86;54.94;100471.47;6760763;29;20355;-80
2022/01/17 11:32:42;;;;;;;7.63;6.80;;;;;;;9.88;54.63;100481.06;6775116;29;20234;-81
2022/01/17 11:36:06;;;;;;;8.90;7.00;;;;;;;9.93;54.88;100500.25;6780362;29;20207;-79
2022/01/17 11:39:28;;;;;;;10.33;6.60;;;;;;;10.28;54.73;100502.84;6787491;29;20279;-82
2022/01/17 11:42:51;;;;;;;11.07;8.67;;;;;;;10.06;55.84;100473.78;6787982;29;20241;-81
2022/01/17 11:46:25;;;;;;;8.30;7.07;;;;;;;9.41;58.13;100473.50;6788337;29;20215;-81
2022/01/17 11:49:46;;;;;;;7.57;6.63;;;;;;;9.60;57.79;100474.16;6785381;29;20190;-81
2022/01/17 11:53:41;;;;;;;8.93;7.33;;;;;;;9.26;59.12;100446.31;6767937;29;20238;-81
2022/01/17 11:57:06;;;;;;;8.03;7.13;;;;;;;9.55;59.12;100435.22;6758724;29;20235;-80
2022/01/17 12:00:31;;;;;;;10.13;7.93;;;;;;;9.59;58.79;100418.63;6761942;29;20670;-82
2022/01/17 12:03:54;;;;;;;8.20;7.33;;;;;;;9.80;59.28;100440.59;6765984;29;20625;-83
2022/01/17 12:07:16;;;;;;;6.00;5.40;;;;;;;9.33;58.10;100444.69;6768403;29;20223;-82
2022/01/17 12:10:43;;;;;;;41.37;26.23;;;;;;;9.28;58.31;100465.84;6768383;29;20231;-83
2022/01/17 12:18:29;;;;;;;34.03;20.70;;;;;;;9.06;58.67;100443.97;7029634;27;20565;-79
2022/01/17 12:22:06;;;;;;;12.47;10.00;;;;;;;9.30;58.75;100474.63;7029943;28;20212;-78
2022/01/17 12:25:32;;;;;;;19.37;14.67;;;;;;;8.93;58.33;100390.56;7030123;28;20198;-78
2022/01/17 12:28:59;;;;;;;13.50;10.73;;;;;;;9.27;58.42;100441.78;7033423;22;20234;-79
2022/01/17 12:32:51;;;;;;;10.13;9.03;;;;;;;8.72;58.22;100330.03;6973813;28;20210;-77
2022/01/17 12:40:19;;;;;;;6.87;6.17;;;;;;;9.90;55.94;100424.31;7057836;27;20540;-78
2022/01/17 12:43:41;;;;;;;10.93;9.73;;;;;;;9.93;56.35;100470.63;7057537;28;20204;-79
2022/01/17 12:47:05;;;;;;;9.00;8.10;;;;;;;10.11;55.60;100420.22;7057292;28;20207;-78
2022/01/17 12:50:28;;;;;;;13.97;11.27;;;;;;;9.73;55.92;100444.94;7057438;28;20207;-78
2022/01/17 12:59:05;;;;;;;6.30;5.70;;;;;;;9.96;55.48;100462.25;6942532;28;20223;-78
2022/01/17 13:02:27;;;;;;;9.03;5.83;;;;;;;9.16;55.28;100347.84;6942928;28;20207;-77
2022/01/17 13:06:03;;;;;;;7.50;6.80;;;;;;;9.68;56.27;100449.97;6941939;28;20631;-76
2022/01/17 13:09:29;;;;;;;8.03;6.80;;;;;;;9.59;55.38;100428.53;6943730;28;20237;-81
2022/01/17 13:12:56;;;;;;;6.77;5.80;;;;;;;9.78;54.60;100407.59;6943163;28;20794;-80
2022/01/17 13:16:43;;;;;;;7.33;6.00;;;;;;;9.60;55.26;100424.81;6943670;28;20216;-81
2022/01/17 13:20:07;;;;;;;22.63;15.30;;;;;;;9.83;54.48;100415.19;6943968;28;20218;-79
2022/01/17 13:23:43;;;;;;;9.57;6.70;;;;;;;10.37;53.36;100425.53;6940714;28;20218;-79
2022/01/17 13:27:09;;;;;;;8.50;7.07;;;;;;;10.01;54.12;100427.56;6942526;28;20214;-79
2022/01/17 13:30:33;;;;;;;8.87;6.70;;;;;;;9.85;54.18;100426.63;6952450;28;20299;-78
2022/01/17 13:34:10;;;;;;;8.17;6.13;;;;;;;10.08;53.53;100420.56;7027978;28;20212;-78
2022/01/17 13:37:32;;;;;;;8.57;5.90;;;;;;;10.35;52.91;100414.94;7038585;28;20706;-79
2022/01/17 13:41:01;;;;;;;6.53;5.90;;;;;;;10.26;52.68;100393.47;7055701;28;20208;-79
2022/01/17 13:44:23;;;;;;;6.43;5.50;;;;;;;10.30;52.87;100402.94;7056505;28;20228;-78
2022/01/17 13:47:54;;;;;;;6.17;5.43;;;;;;;10.17;52.81;100392.59;7056746;28;20207;-78
2022/01/17 13:51:21;;;;;;;7.80;5.17;;;;;;;10.05;52.65;100393.09;7038248;28;20216;-79
2022/01/17 13:54:46;;;;;;;6.90;5.20;;;;;;;10.41;52.29;100371.13;7036283;28;20215;-79
2022/01/17 13:58:10;;;;;;;6.70;5.83;;;;;;;10.11;52.37;100342.06;7037417;28;20250;-79
2022/01/17 14:01:36;;;;;;;7.53;5.37;;;;;;;9.94;52.14;100336.78;7031447;28;20209;-79
2022/01/17 14:04:58;;;;;;;7.00;5.90;;;;;;;10.56;51.13;100331.69;7034516;28;20431;-84
2022/01/17 14:08:26;;;;;;;6.23;4.73;;;;;;;10.38;51.19;100374.13;7034812;28;20720;-79
2022/01/17 14:11:50;;;;;;;7.60;5.40;;;;;;;10.19;50.96;100327.75;7037046;28;20208;-80
2022/01/17 14:15:12;;;;;;;6.83;5.40;;;;;;;10.85;50.72;100374.34;7037018;28;20205;-81
2022/01/17 14:18:34;;;;;;;6.07;4.80;;;;;;;10.71;50.82;100365.09;7036319;28;20223;-80
2022/01/17 14:22:02;;;;;;;8.40;5.50;;;;;;;10.29;51.53;100360.81;7037438;28;20220;-80
2022/01/17 14:25:25;;;;;;;6.73;5.33;;;;;;;10.57;50.99;100362.22;7036134;28;20208;-81
2022/01/17 14:28:53;;;;;;;7.17;5.30;;;;;;;10.63;50.51;100356.97;7036117;28;20200;-80
2022/01/17 14:32:30;;;;;;;7.77;5.13;;;;;;;10.84;49.85;100365.41;7036660;28;20201;-80
2022/01/17 14:36:08;;;;;;;5.53;4.87;;;;;;;11.01;49.08;100407.59;7036483;28;20233;-81
2022/01/17 14:39:31;;;;;;;5.90;3.87;;;;;;;10.47;49.21;100404.66;7036182;28;20228;-81
2022/01/17 14:42:56;;;;;;;7.13;5.13;;;;;;;10.63;48.73;100372.31;7036381;28;20208;-81
2022/01/17 14:46:18;;;;;;;4.27;3.30;;;;;;;10.49;48.66;100410.72;7035655;28;20582;-81
2022/01/17 14:49:43;;;;;;;7.90;4.27;;;;;;;10.33;49.56;100406.13;7036398;28;20216;-81
2022/01/17 14:53:05;;;;;;;3.53;3.23;;;;;;;10.55;49.33;100421.69;7036002;28;20215;-80
2022/01/17 15:00:12;;;;;;;5.13;3.90;;;;;;;10.23;48.60;100396.53;7028668;28;20224;-81
2022/01/17 15:03:36;;;;;;;4.63;3.90;;;;;;;10.58;48.28;100442.94;7034691;28;20196;-80
2022/01/17 15:06:58;;;;;;;6.10;4.43;;;;;;;10.51;48.36;100447.31;7035883;28;20279;-81
2022/01/17 15:10:21;;;;;;;7.83;4.67;;;;;;;10.56;47.66;100430.66;7036303;28;20209;-80
2022/01/17 15:13:42;;;;;;;6.63;4.57;;;;;;;10.46;48.86;100427.25;7035367;28;20215;-80
2022/01/17 15:17:07;;;;;;;13.17;11.20;;;;;;;10.62;48.70;100421.91;7035209;28;20205;-81
2022/01/17 15:20:29;;;;;;;8.00;6.57;;;;;;;10.25;48.86;100429.53;7036258;28;20235;-81
2022/01/17 15:23:51;;;;;;;5.97;5.20;;;;;;;10.19;50.03;100430.19;7035060;28;20221;-80
2022/01/17 15:27:13;;;;;;;5.80;5.20;;;;;;;10.14;49.80;100387.56;7035378;28;20214;-81
2022/01/17 15:30:35;;;;;;;6.43;5.80;;;;;;;10.46;49.82;100457.72;7035825;28;20203;-80
2022/01/17 15:34:00;;;;;;;9.60;5.17;;;;;;;10.94;48.87;100454.28;7033707;28;20236;-81
2022/01/17 15:37:22;;;;;;;5.53;5.03;;;;;;;10.74;49.19;100455.63;7035294;28;20228;-82
2022/01/17 15:40:45;;;;;;;5.77;4.83;;;;;;;10.45;49.85;100422.88;7035111;28;20567;-81
2022/01/17 15:44:08;;;;;;;5.40;4.90;;;;;;;10.28;49.71;100418.44;7035180;28;20225;-82
2022/01/17 15:47:30;;;;;;;10.40;5.23;;;;;;;10.51;49.83;100454.56;7034904;28;20214;-81
2022/01/17 15:50:53;;;;;;;7.70;5.03;;;;;;;10.50;49.59;100451.00;7034247;28;20654;-81
2022/01/17 15:54:15;;;;;;;6.97;5.50;;;;;;;10.29;49.70;100447.94;7035121;28;20217;-81
2022/01/17 15:57:36;;;;;;;7.33;5.10;;;;;;;10.21;50.14;100439.81;7034970;28;20201;-80
2022/01/17 16:00:58;;;;;;;5.13;4.60;;;;;;;10.51;49.37;100454.56;7034406;28;20275;-80
2022/01/17 16:04:22;;;;;;;7.07;5.40;;;;;;;10.48;49.01;100449.50;7029363;28;20212;-80
2022/01/17 16:07:45;;;;;;;6.27;5.63;;;;;;;10.40;49.65;100462.97;7032855;28;20635;-80
2022/01/17 16:11:07;;;;;;;10.97;8.60;;;;;;;9.98;49.98;100449.44;7034030;28;20570;-80
2022/01/17 16:14:50;;;;;;;7.30;5.73;;;;;;;10.08;49.67;100490.63;7033320;28;20201;-91
2022/01/17 16:18:15;;;;;;;5.63;5.13;;;;;;;10.07;49.31;100445.81;7033631;28;20220;-81
2022/01/17 16:21:40;;;;;;;10.57;6.77;;;;;;;9.97;51.85;100490.88;7030877;28;20213;-80
2022/01/17 16:25:05;;;;;;;5.67;5.07;;;;;;;10.48;50.86;100506.13;7032186;28;20208;-80
2022/01/17 16:28:28;;;;;;;6.80;5.83;;;;;;;10.57;50.12;100483.56;7031826;28;20208;-80
2022/01/17 16:31:53;;;;;;;6.57;5.50;;;;;;;10.62;49.71;100473.16;7011655;28;20209;-81
2022/01/17 16:35:26;;;;;;;8.73;5.40;;;;;;;11.14;49.49;100498.84;7004459;28;20198;-83
2022/01/17 16:42:19;;;;;;;7.10;6.40;;;;;;;10.93;48.53;100510.13;7981194;22;20240;-83
2022/01/17 16:45:41;;;;;;;13.33;7.50;;;;;;;10.96;48.90;100520.59;7003322;28;20205;-81
2022/01/17 16:49:02;;;;;;;7.80;6.93;;;;;;;10.68;49.04;100507.56;7002536;28;20839;-87
2022/01/17 16:52:24;;;;;;;9.00;7.00;;;;;;;10.52;49.87;100494.84;7003230;28;20233;-86
2022/01/17 16:55:46;;;;;;;8.23;7.40;;;;;;;10.40;50.26;100512.31;7002103;28;20196;-84
2022/01/17 16:59:09;;;;;;;7.47;6.70;;;;;;;10.42;49.97;100509.47;7002864;28;20241;-83
2022/01/17 17:02:30;;;;;;;9.10;7.70;;;;;;;10.01;51.13;100494.94;7002419;28;20696;-81
2022/01/17 17:05:52;;;;;;;11.50;8.13;;;;;;;9.95;51.63;100540.53;7001638;28;20216;-83
2022/01/17 17:09:14;;;;;;;13.13;8.47;;;;;;;10.36;51.21;100523.59;7002859;28;20673;-83
2022/01/17 17:12:36;;;;;;;11.27;8.33;;;;;;;10.02;52.35;100504.72;7002872;28;20696;-81
2022/01/17 17:15:59;;;;;;;19.30;14.87;;;;;;;10.00;52.83;100497.78;7002043;28;20859;-85
2022/01/17 17:19:21;;;;;;;14.57;10.40;;;;;;;9.59;54.37;100491.31;7002664;28;20226;-84
2022/01/17 17:22:42;;;;;;;12.73;10.00;;;;;;;9.68;54.76;100517.28;7002917;28;20725;-84
2022/01/17 17:26:04;;;;;;;13.17;10.50;;;;;;;10.36;53.68;100523.59;7006503;28;20219;-86
2022/01/17 17:29:26;;;;;;;14.00;10.63;;;;;;;10.01;55.13;100546.16;7006831;28;20201;-83
2022/01/17 17:32:49;;;;;;;15.43;11.37;;;;;;;10.20;55.25;100528.91;7007907;28;20232;-82
2022/01/17 17:36:11;;;;;;;15.70;12.27;;;;;;;10.32;54.91;100520.38;6990278;28;20198;-83
2022/01/17 17:39:32;;;;;;;22.93;15.17;;;;;;;10.30;55.27;100525.09;6990317;28;20236;-82
2022/01/17 17:42:54;;;;;;;20.27;13.93;;;;;;;10.32;55.19;100546.50;6995011;28;20237;-84
2022/01/17 17:46:16;;;;;;;18.53;14.03;;;;;;;10.25;55.02;100511.25;6999340;28;21603;-83
2022/01/17 17:49:40;;;;;;;19.77;15.90;;;;;;;10.15;56.43;100558.22;7004461;28;20202;-83
2022/01/17 17:53:02;;;;;;;22.63;17.47;;;;;;;9.79;57.15;100570.06;6993188;28;20218;-83
2022/01/17 17:56:24;;;;;;;20.40;14.37;;;;;;;9.71;56.87;100560.09;6990417;28;20210;-83
2022/01/17 17:59:47;;;;;;;17.67;13.50;;;;;;;9.85;56.59;100564.03;6994297;28;20685;-84
2022/01/17 18:03:09;;;;;;;18.23;15.13;;;;;;;10.00;56.45;100566.03;6990595;28;20264;-82
2022/01/17 18:06:32;;;;;;;19.27;13.87;;;;;;;10.01;56.88;100550.69;6983704;28;20198;-85
2022/01/17 18:09:54;;;;;;;21.00;14.23;;;;;;;10.13;56.84;100585.34;6998801;28;20216;-83
2022/01/17 18:13:16;;;;;;;19.37;13.90;;;;;;;10.10;57.38;100585.63;6999735;28;20225;-82
2022/01/17 18:16:37;;;;;;;20.70;14.37;;;;;;;10.21;57.14;100582.66;6981423;28;20540;-84
2022/01/17 18:19:59;;;;;;;22.83;17.40;;;;;;;10.20;56.81;100554.03;6994609;28;20218;-84
2022/01/17 18:23:22;;;;;;;22.33;17.47;;;;;;;10.26;56.76;100568.69;7000574;28;20268;-81
2022/01/17 18:26:44;;;;;;;19.53;14.30;;;;;;;10.43;56.25;100562.38;7000539;28;20201;-82
2022/01/17 18:30:07;;;;;;;18.53;13.97;;;;;;;9.98;56.64;100548.31;6992470;28;20208;-83
2022/01/17 18:33:31;;;;;;;28.33;17.57;;;;;;;9.86;57.50;100553.09;6994634;28;20236;-82
2022/01/17 18:36:53;;;;;;;28.53;18.93;;;;;;;10.32;56.97;100579.69;6996789;28;20197;-82
2022/01/17 18:40:18;;;;;;;21.20;15.30;;;;;;;10.45;55.92;100580.09;7007746;28;20233;-83
2022/01/17 18:43:40;;;;;;;19.80;13.40;;;;;;;9.99;56.62;100591.25;7006502;28;20216;-83
2022/01/17 18:47:02;;;;;;;18.70;13.83;;;;;;;9.51;59.07;100588.19;7006710;28;20242;-83
2022/01/17 18:50:28;;;;;;;17.53;12.57;;;;;;;9.50;59.34;100574.91;7005886;28;20216;-82
2022/01/17 18:53:53;;;;;;;18.30;12.93;;;;;;;9.67;58.86;100582.09;7006347;28;20192;-85
2022/01/17 18:57:16;;;;;;;30.93;21.17;;;;;;;9.34;59.66;100588.22;7006734;28;20209;-83
2022/01/17 19:00:38;;;;;;;23.27;17.90;;;;;;;9.51;59.58;100590.88;7005849;28;20259;-81
2022/01/17 19:04:00;;;;;;;20.03;14.57;;;;;;;9.56;60.22;100593.13;6987019;28;20211;-81
2022/01/17 19:07:22;;;;;;;32.50;18.47;;;;;;;9.43;59.70;100604.28;6992167;28;20206;-83
2022/01/17 19:10:46;;;;;;;29.30;19.50;;;;;;;9.49;59.77;100603.66;7001278;28;20248;-82
2022/01/17 19:14:09;;;;;;;57.93;32.97;;;;;;;9.56;59.44;100606.59;6991592;28;20232;-82
2022/01/17 19:17:48;;;;;;;44.43;26.73;;;;;;;9.71;59.71;100596.94;7000475;28;20197;-83
2022/01/17 19:21:30;;;;;;;42.23;26.80;;;;;;;9.97;59.11;100609.44;7005953;28;20727;-83
2022/01/17 19:24:52;;;;;;;35.57;22.57;;;;;;;10.06;57.71;100589.66;7005480;28;20209;-82
2022/01/17 19:28:14;;;;;;;27.90;19.50;;;;;;;10.17;57.98;100600.16;7006165;28;20206;-85
2022/01/17 19:31:37;;;;;;;22.37;14.30;;;;;;;9.93;58.48;100607.22;7006240;28;20246;-82
2022/01/17 19:34:59;;;;;;;17.83;13.57;;;;;;;9.96;58.36;100602.34;7006174;28;20199;-82
2022/01/17 19:38:22;;;;;;;20.57;14.40;;;;;;;9.48;58.81;100596.59;7006522;28;20216;-81
2022/01/17 19:41:44;;;;;;;23.83;17.13;;;;;;;8.58;63.01;100630.88;7005137;28;20277;-82
2022/01/17 19:45:08;;;;;;;23.37;17.30;;;;;;;8.82;62.95;100628.47;7005196;28;20211;-82
2022/01/17 19:48:32;;;;;;;22.47;16.40;;;;;;;9.06;62.25;100637.69;7003413;28;20216;-82
2022/01/17 19:51:53;;;;;;;23.23;16.60;;;;;;;9.54;60.99;100643.56;7005640;28;20247;-82
2022/01/17 19:55:15;;;;;;;23.00;16.30;;;;;;;9.34;60.72;100601.66;7004641;28;20208;-81
2022/01/17 19:58:37;;;;;;;24.37;16.60;;;;;;;9.79;60.39;100649.03;7005862;28;20207;-82
2022/01/17 20:01:58;;;;;;;24.80;17.57;;;;;;;10.02;59.09;100642.16;7005024;28;20228;-82
2022/01/17 20:05:23;;;;;;;22.93;16.47;;;;;;;10.04;59.33;100647.41;6976187;28;20208;-82
2022/01/17 20:08:44;;;;;;;21.60;14.37;;;;;;;9.54;59.25;100608.56;6990598;28;20199;-81
2022/01/17 20:12:07;;;;;;;22.03;15.20;;;;;;;9.87;59.32;100649.09;7000666;28;20224;-82
2022/01/17 20:15:28;;;;;;;25.10;18.03;;;;;;;9.96;59.27;100650.00;7004840;28;20200;-82
2022/01/17 20:18:51;;;;;;;28.63;17.60;;;;;;;9.61;59.55;100597.03;7005755;28;20229;-82
2022/01/17 20:22:14;;;;;;;30.60;21.50;;;;;;;9.77;59.79;100651.03;7005982;28;20264;-82
2022/01/17 20:25:36;;;;;;;29.30;19.20;;;;;;;9.80;60.24;100657.97;7005402;28;20213;-81
2022/01/17 20:28:57;;;;;;;31.60;20.37;;;;;;;9.78;60.28;100641.97;7005458;28;20205;-81
2022/01/17 20:32:19;;;;;;;22.40;16.37;;;;;;;9.90;59.54;100611.06;7005669;28;20317;-81
2022/01/17 20:35:41;;;;;;;22.67;15.10;;;;;;;9.65;59.75;100614.59;7004564;28;20201;-81
2022/01/17 20:39:04;;;;;;;29.57;19.30;;;;;;;8.90;62.21;100629.44;7004597;28;20267;-82
2022/01/17 20:42:27;;;;;;;34.30;20.70;;;;;;;8.05;64.05;100592.13;7003934;28;20586;-82